createdAt,value
2022-12-27T10:12:08.548Z,12364.00
2022-12-27T10:12:17.441Z,12472.00
2022-12-27T10:12:31.819Z,12656.00
2022-12-27T10:12:39.214Z,12832.00
2022-12-27T10:12:49.768Z,12952.00
2022-12-27T10:13:00.749Z,13080.00
2022-12-27T10:13:11.554Z,13228.00
2022-12-27T10:13:22.105Z,13532.00
2022-12-27T10:13:33.142Z,13664.00
2022-12-27T10:13:43.927Z,14028.00
2022-12-27T10:13:54.474Z,14540.00
2022-12-27T10:14:05.469Z,15028.00
2022-12-27T10:14:16.300Z,15424.00
2022-12-27T10:14:26.866Z,15968.00
2022-12-27T10:14:37.854Z,16640.00
2022-12-27T10:14:48.672Z,16864.00
2022-12-27T10:14:59.217Z,17056.00
2022-12-27T10:15:10.213Z,18912.00
2022-12-27T10:15:20.990Z,20704.00
2022-12-27T10:15:31.568Z,22016.00
2022-12-27T10:15:42.561Z,23424.00
2022-12-27T10:15:53.390Z,24992.00
2022-12-27T10:16:03.969Z,26784.00
2022-12-27T10:16:14.954Z,28256.00
2022-12-27T10:16:25.795Z,29952.00
2022-12-27T10:16:36.322Z,31040.00
2022-12-27T10:16:47.314Z,33472.00
2022-12-27T10:16:58.107Z,33888.00
2022-12-27T10:17:08.658Z,33504.00
2022-12-27T10:17:19.656Z,34592.00
2022-12-27T10:17:30.459Z,36288.00
2022-12-27T10:17:41.011Z,37600.00
2022-12-27T10:17:53.570Z,39104.00
2022-12-27T10:18:02.708Z,40704.00
2022-12-27T10:18:13.281Z,40832.00
2022-12-27T10:18:24.270Z,41056.00
2022-12-27T10:18:35.054Z,40992.00
2022-12-27T10:18:45.641Z,41600.00
2022-12-27T10:18:56.590Z,41248.00
2022-12-27T10:19:07.396Z,41088.00
2022-12-27T10:19:18.037Z,38304.00
2022-12-27T10:19:28.970Z,40576.00
2022-12-27T10:19:39.759Z,42592.00
2022-12-27T10:19:50.302Z,41792.00
2022-12-27T10:20:01.291Z,41824.00
2022-12-27T10:20:12.078Z,42848.00
2022-12-27T10:20:22.653Z,43392.00
2022-12-27T10:20:33.652Z,43680.00
2022-12-27T10:20:44.446Z,42688.00
2022-12-27T10:20:54.999Z,42048.00
2022-12-27T10:21:05.979Z,42656.00
2022-12-27T10:21:16.810Z,42208.00
2022-12-27T10:21:27.363Z,42784.00
2022-12-27T10:21:38.325Z,41888.00
2022-12-27T10:21:49.124Z,42048.00
2022-12-27T10:21:59.697Z,43072.00
2022-12-27T10:22:10.732Z,43232.00
2022-12-27T10:22:21.484Z,42528.00
2022-12-27T10:22:32.031Z,42560.00
2022-12-27T10:22:43.000Z,43008.00
2022-12-27T10:22:53.798Z,42496.00
2022-12-27T10:23:06.374Z,42336.00
2022-12-27T10:23:15.042Z,43264.00
2022-12-27T10:23:25.822Z,43072.00
2022-12-27T10:23:36.380Z,43808.00
2022-12-27T10:23:47.360Z,43264.00
2022-12-27T10:23:58.170Z,43296.00
2022-12-27T10:24:08.700Z,44352.00
2022-12-27T10:24:19.705Z,43360.00
2022-12-27T10:24:30.477Z,43872.00
2022-12-27T10:24:41.064Z,43936.00
2022-12-27T10:24:52.023Z,45344.00
2022-12-27T10:25:02.803Z,44544.00
2022-12-27T10:25:13.522Z,44768.00
2022-12-27T10:25:24.489Z,44928.00
2022-12-27T10:25:35.334Z,45408.00
2022-12-27T10:25:45.883Z,45856.00
2022-12-27T10:25:56.393Z,45760.00
2022-12-27T10:26:07.227Z,45792.00
2022-12-27T10:26:17.791Z,45312.00
2022-12-27T10:26:28.785Z,45024.00
2022-12-27T10:26:39.590Z,45984.00
2022-12-27T10:26:50.129Z,46304.00
2022-12-27T10:27:01.120Z,45280.00
2022-12-27T10:27:11.939Z,45504.00
2022-12-27T10:27:22.464Z,46176.00
2022-12-27T10:27:33.447Z,45536.00
2022-12-27T10:27:44.230Z,45664.00
2022-12-27T10:27:54.799Z,46240.00
2022-12-27T10:28:05.754Z,45344.00
2022-12-27T10:28:16.555Z,45472.00
2022-12-27T10:28:27.129Z,46208.00
2022-12-27T10:28:38.102Z,45984.00
2022-12-27T10:28:51.196Z,44992.00
2022-12-27T10:29:00.470Z,44800.00
2022-12-27T10:29:10.396Z,44864.00
2022-12-27T10:29:21.171Z,44768.00
2022-12-27T10:29:31.712Z,45184.00
2022-12-27T10:29:42.715Z,44416.00
2022-12-27T10:29:53.485Z,45472.00
2022-12-27T10:30:04.029Z,45760.00
2022-12-27T10:30:15.003Z,45024.00
2022-12-27T10:30:25.786Z,46048.00
2022-12-27T10:30:36.407Z,44704.00
2022-12-27T10:30:47.367Z,44576.00
2022-12-27T10:30:58.178Z,43776.00
2022-12-27T10:31:08.907Z,44992.00
2022-12-27T10:31:19.339Z,45280.00
2022-12-27T10:31:30.174Z,44960.00
2022-12-27T10:31:40.764Z,45120.00
2022-12-27T10:31:51.720Z,45792.00
2022-12-27T10:32:02.499Z,45952.00
2022-12-27T10:32:13.251Z,44192.00
2022-12-27T10:32:24.233Z,45248.00
2022-12-27T10:32:35.083Z,44192.00
2022-12-27T10:32:45.608Z,44384.00
2022-12-27T10:32:56.647Z,46112.00
2022-12-27T10:33:07.378Z,45888.00
2022-12-27T10:33:18.462Z,44032.00
2022-12-27T10:33:29.498Z,45952.00
2022-12-27T10:33:40.241Z,44864.00
2022-12-27T10:33:50.781Z,45760.00
2022-12-27T10:34:05.074Z,46400.00
2022-12-27T10:34:13.741Z,46112.00
2022-12-27T10:34:23.729Z,46432.00
2022-12-27T10:34:34.741Z,45696.00
2022-12-27T10:34:45.541Z,45728.00
2022-12-27T10:34:56.066Z,46656.00
2022-12-27T10:35:07.050Z,45536.00
2022-12-27T10:35:17.824Z,46432.00
2022-12-27T10:35:28.369Z,46368.00
2022-12-27T10:35:39.415Z,45536.00
2022-12-27T10:35:50.234Z,44992.00
2022-12-27T10:36:00.782Z,44928.00
2022-12-27T10:36:11.767Z,45696.00
2022-12-27T10:36:22.553Z,46272.00
2022-12-27T10:36:33.107Z,45344.00
2022-12-27T10:36:44.085Z,46400.00
2022-12-27T10:36:54.898Z,46432.00
2022-12-27T10:37:05.425Z,45792.00
2022-12-27T10:37:16.418Z,46336.00
2022-12-27T10:37:27.185Z,45888.00
2022-12-27T10:37:38.273Z,45824.00
2022-12-27T10:37:49.263Z,45376.00
2022-12-27T10:38:00.050Z,45248.00
2022-12-27T10:38:10.600Z,46272.00
2022-12-27T10:38:21.608Z,45376.00
2022-12-27T10:38:32.372Z,45248.00
2022-12-27T10:38:43.463Z,46368.00
2022-12-27T10:38:54.443Z,45536.00
2022-12-27T10:39:05.235Z,45856.00
2022-12-27T10:39:15.776Z,46080.00
2022-12-27T10:39:26.743Z,45216.00
2022-12-27T10:39:37.549Z,45760.00
2022-12-27T10:39:48.087Z,44544.00
2022-12-27T10:39:59.066Z,45760.00
2022-12-27T10:40:09.871Z,45152.00
2022-12-27T10:40:20.408Z,44000.00
2022-12-27T10:40:34.565Z,43712.00
2022-12-27T10:40:42.538Z,43488.00
2022-12-27T10:40:53.152Z,43104.00
2022-12-27T10:41:04.106Z,44640.00
2022-12-27T10:41:15.014Z,45088.00
2022-12-27T10:41:25.561Z,44000.00
2022-12-27T10:41:36.536Z,42400.00
2022-12-27T10:41:47.356Z,43616.00
2022-12-27T10:41:57.914Z,43168.00
2022-12-27T10:42:08.878Z,44576.00
2022-12-27T10:42:19.676Z,45216.00
2022-12-27T10:42:30.743Z,44608.00
2022-12-27T10:42:41.895Z,46144.00
2022-12-27T10:42:52.733Z,47264.00
2022-12-27T10:43:03.845Z,46496.00
2022-12-27T10:43:14.812Z,46912.00
2022-12-27T10:43:25.600Z,43136.00
2022-12-27T10:43:36.162Z,37664.00
2022-12-27T10:43:47.130Z,33312.00
2022-12-27T10:43:57.918Z,35776.00
2022-12-27T10:44:08.477Z,36864.00
2022-12-27T10:44:19.475Z,39552.00
2022-12-27T10:44:30.263Z,44928.00
2022-12-27T10:44:40.781Z,47872.00
2022-12-27T10:44:51.809Z,47264.00
2022-12-27T10:45:02.555Z,48800.00
2022-12-27T10:45:13.097Z,50144.00
2022-12-27T10:45:24.080Z,43168.00
2022-12-27T10:45:34.875Z,36800.00
2022-12-27T10:45:45.449Z,34656.00
2022-12-27T10:45:56.397Z,29760.00
2022-12-27T10:46:07.226Z,47552.00
2022-12-27T10:46:17.796Z,49184.00
2022-12-27T10:46:32.701Z,48800.00
2022-12-27T10:46:39.613Z,48352.00
2022-12-27T10:46:50.172Z,49312.00
2022-12-27T10:47:01.218Z,49344.00
2022-12-27T10:47:12.019Z,49184.00
2022-12-27T10:47:22.555Z,49696.00
2022-12-27T10:47:33.515Z,47584.00
2022-12-27T10:47:44.301Z,47456.00
2022-12-27T10:47:54.831Z,48160.00
2022-12-27T10:48:05.816Z,49088.00
2022-12-27T10:48:16.595Z,47840.00
2022-12-27T10:48:36.352Z,48128.00
2022-12-27T10:49:18.987Z,48288.00
2022-12-27T10:49:19.414Z,47968.00
2022-12-27T10:49:20.946Z,47136.00
2022-12-27T10:49:22.785Z,47392.00
2022-12-27T10:49:23.262Z,46528.00
2022-12-27T10:49:33.263Z,46464.00
2022-12-27T10:49:44.227Z,46720.00
2022-12-27T10:49:55.007Z,45952.00
2022-12-27T10:50:05.556Z,46464.00
2022-12-27T10:50:16.531Z,44480.00
2022-12-27T10:50:27.318Z,44064.00
2022-12-27T10:50:37.897Z,42592.00
2022-12-27T10:50:48.911Z,42528.00
2022-12-27T10:50:59.673Z,42400.00
2022-12-27T10:51:10.214Z,42464.00
2022-12-27T10:51:21.218Z,42080.00
2022-12-27T10:51:32.005Z,42688.00
2022-12-27T10:51:42.563Z,43520.00
2022-12-27T10:51:53.534Z,43680.00
2022-12-27T10:52:04.318Z,44704.00
2022-12-27T10:52:14.874Z,45440.00
2022-12-27T10:52:25.845Z,45440.00
2022-12-27T10:52:36.696Z,46272.00
2022-12-27T10:52:50.155Z,45408.00
2022-12-27T10:52:59.205Z,44736.00
2022-12-27T10:53:08.871Z,45760.00
2022-12-27T10:53:19.377Z,46400.00
2022-12-27T10:53:30.378Z,47392.00
2022-12-27T10:53:41.215Z,47008.00
2022-12-27T10:53:51.727Z,46944.00
2022-12-27T10:54:02.705Z,47680.00
2022-12-27T10:54:13.484Z,46624.00
2022-12-27T10:54:24.108Z,46528.00
2022-12-27T10:54:35.057Z,47616.00
2022-12-27T10:54:45.844Z,47360.00
2022-12-27T10:54:56.406Z,46176.00
2022-12-27T10:55:07.381Z,47008.00
2022-12-27T10:55:18.194Z,47456.00
2022-12-27T10:55:28.713Z,47424.00
2022-12-27T10:55:39.827Z,48448.00
2022-12-27T10:55:50.593Z,48320.00
2022-12-27T10:56:01.119Z,49280.00
2022-12-27T10:56:12.106Z,48672.00
2022-12-27T10:56:22.885Z,48800.00
2022-12-27T10:56:33.511Z,47840.00
2022-12-27T10:56:44.479Z,47840.00
2022-12-27T10:56:55.212Z,48576.00
2022-12-27T10:57:06.329Z,46464.00
2022-12-27T10:57:17.315Z,47296.00
2022-12-27T10:57:28.120Z,48000.00
2022-12-27T10:57:38.661Z,47456.00
2022-12-27T10:57:49.728Z,49408.00
2022-12-27T10:58:00.472Z,48928.00
2022-12-27T10:58:11.532Z,48576.00
2022-12-27T10:58:22.601Z,48960.00
2022-12-27T10:58:33.344Z,48576.00
2022-12-27T10:58:43.877Z,47904.00
2022-12-27T10:58:58.735Z,49408.00
2022-12-27T10:59:05.737Z,49824.00
2022-12-27T10:59:16.291Z,49600.00
2022-12-27T10:59:27.279Z,48544.00
2022-12-27T10:59:38.054Z,48640.00
2022-12-27T10:59:48.596Z,49920.00
2022-12-27T10:59:59.575Z,48288.00
2022-12-27T11:00:10.360Z,49024.00
2022-12-27T11:00:21.480Z,46656.00
2022-12-27T11:00:32.510Z,48800.00
2022-12-27T11:00:43.265Z,49728.00
2022-12-27T11:00:53.852Z,48896.00
2022-12-27T11:01:04.858Z,49184.00
2022-12-27T11:01:15.779Z,48128.00
2022-12-27T11:01:26.469Z,48000.00
2022-12-27T11:01:37.621Z,45184.00
2022-12-27T11:01:48.645Z,43264.00
2022-12-27T11:01:59.323Z,42464.00
2022-12-27T11:02:09.822Z,39424.00
2022-12-27T11:02:20.719Z,41280.00
2022-12-27T11:02:31.442Z,45248.00
2022-12-27T11:02:41.994Z,46784.00
2022-12-27T11:02:52.903Z,45536.00
2022-12-27T11:03:03.469Z,46016.00
2022-12-27T11:03:14.416Z,45952.00
2022-12-27T11:03:25.243Z,46496.00
2022-12-27T11:03:35.801Z,46368.00
2022-12-27T11:03:46.771Z,47072.00
2022-12-27T11:03:57.552Z,45664.00
2022-12-27T11:04:08.669Z,45216.00
2022-12-27T11:04:20.921Z,43424.00
2022-12-27T11:04:30.243Z,40544.00
2022-12-27T11:04:41.333Z,40128.00
2022-12-27T11:04:52.296Z,37536.00
2022-12-27T11:05:03.086Z,36160.00
2022-12-27T11:05:13.633Z,36416.00
2022-12-27T11:05:24.639Z,36256.00
2022-12-27T11:05:35.417Z,37408.00
2022-12-27T11:05:45.970Z,37504.00
2022-12-27T11:05:57.068Z,31872.00
2022-12-27T11:06:07.823Z,19744.00
2022-12-27T11:06:18.345Z,35008.00
2022-12-27T11:06:29.328Z,40928.00
2022-12-27T11:06:40.146Z,40544.00
2022-12-27T11:06:50.663Z,40256.00
2022-12-27T11:07:01.649Z,43136.00
2022-12-27T11:07:12.433Z,42944.00
2022-12-27T11:07:23.045Z,42976.00
2022-12-27T11:07:34.009Z,40032.00
2022-12-27T11:07:44.818Z,39552.00
2022-12-27T11:07:55.359Z,41856.00
2022-12-27T11:08:06.350Z,40352.00
2022-12-27T11:08:17.115Z,41184.00
2022-12-27T11:08:27.660Z,41376.00
2022-12-27T11:08:38.624Z,40640.00
2022-12-27T11:08:49.437Z,40960.00
2022-12-27T11:08:59.974Z,40384.00
2022-12-27T11:09:10.937Z,40032.00
2022-12-27T11:09:21.710Z,41376.00
2022-12-27T11:09:32.282Z,40288.00
2022-12-27T11:09:48.381Z,40512.00
2022-12-27T11:09:55.218Z,41248.00
2022-12-27T11:10:05.232Z,44032.00
2022-12-27T11:10:16.304Z,43424.00
2022-12-27T11:10:27.040Z,43648.00
2022-12-27T11:10:37.612Z,43136.00
2022-12-27T11:10:48.584Z,42464.00
2022-12-27T11:10:59.394Z,41920.00
2022-12-27T11:11:09.952Z,41792.00
2022-12-27T11:11:20.969Z,41408.00
2022-12-27T11:11:31.698Z,40256.00
2022-12-27T11:11:42.777Z,41568.00
2022-12-27T11:11:53.776Z,41088.00
2022-12-27T11:12:04.550Z,41216.00
2022-12-27T11:12:15.103Z,41504.00
2022-12-27T11:12:26.142Z,41280.00
2022-12-27T11:12:36.899Z,40448.00
2022-12-27T11:12:47.439Z,40928.00
2022-12-27T11:12:58.427Z,39712.00
2022-12-27T11:13:09.212Z,40256.00
2022-12-27T11:13:19.794Z,38464.00
2022-12-27T11:13:30.737Z,39712.00
2022-12-27T11:13:41.539Z,40608.00
2022-12-27T11:13:52.075Z,40224.00
2022-12-27T11:14:03.043Z,40480.00
2022-12-27T11:14:13.834Z,39008.00
2022-12-27T11:14:24.410Z,39776.00
2022-12-27T11:14:35.382Z,40736.00
2022-12-27T11:14:46.167Z,40288.00
2022-12-27T11:14:57.251Z,40128.00
2022-12-27T11:15:08.234Z,39520.00
2022-12-27T11:15:19.033Z,40672.00
2022-12-27T11:15:29.572Z,40576.00
2022-12-27T11:15:40.582Z,39968.00
2022-12-27T11:15:55.380Z,40224.00
2022-12-27T11:16:03.507Z,39840.00
2022-12-27T11:16:13.395Z,39680.00
2022-12-27T11:16:24.175Z,39744.00
2022-12-27T11:16:35.285Z,39872.00
2022-12-27T11:16:46.267Z,39904.00
2022-12-27T11:16:57.013Z,39968.00
2022-12-27T11:17:07.572Z,39392.00
2022-12-27T11:17:18.570Z,38368.00
2022-12-27T11:17:29.361Z,38592.00
2022-12-27T11:17:39.916Z,37344.00
2022-12-27T11:17:50.883Z,37984.00
2022-12-27T11:18:01.707Z,38240.00
2022-12-27T11:18:12.233Z,37888.00
2022-12-27T11:18:23.222Z,37664.00
2022-12-27T11:18:33.988Z,36320.00
2022-12-27T11:18:45.075Z,35424.00
2022-12-27T11:18:56.068Z,34208.00
2022-12-27T11:19:06.861Z,33184.00
2022-12-27T11:19:17.411Z,30272.00
2022-12-27T11:19:28.417Z,28128.00
2022-12-27T11:19:39.186Z,25984.00
2022-12-27T11:19:50.277Z,22976.00
2022-12-27T11:20:01.233Z,19200.00
2022-12-27T11:20:12.021Z,16960.00
2022-12-27T11:20:23.109Z,12532.00
2022-12-27T11:20:34.077Z,12060.00
2022-12-27T11:20:44.854Z,9336.00
2022-12-27T11:20:55.406Z,7984.00
2022-12-27T11:21:06.407Z,6952.00
2022-12-27T11:21:24.096Z,6296.00
2022-12-27T11:21:29.289Z,5800.00
2022-12-27T11:21:39.190Z,5696.00
2022-12-27T11:21:49.964Z,5744.00
2022-12-27T11:22:01.057Z,6032.00
2022-12-27T11:22:12.039Z,6036.00
2022-12-27T11:22:22.801Z,5836.00
2022-12-27T11:22:33.352Z,5788.00
2022-12-27T11:22:44.349Z,5612.00
2022-12-27T11:22:55.148Z,5456.00
2022-12-27T11:23:06.209Z,5208.00
2022-12-27T11:23:17.192Z,5072.00
2022-12-27T11:23:27.974Z,4976.00
2022-12-27T11:23:39.053Z,4828.00
2022-12-27T11:23:50.042Z,4700.00
2022-12-27T11:24:00.842Z,4660.00
2022-12-27T11:24:11.947Z,4648.00
2022-12-27T11:24:22.937Z,4524.00
2022-12-27T11:24:33.705Z,4540.00
2022-12-27T11:24:44.805Z,4332.00
2022-12-27T11:24:55.774Z,4256.00
2022-12-27T11:25:06.551Z,4144.00
2022-12-27T11:25:17.673Z,4052.00
2022-12-27T11:25:28.649Z,3972.00
2022-12-27T11:25:39.415Z,3908.00
2022-12-27T11:25:49.953Z,3824.00
2022-12-27T11:26:00.933Z,3784.00
2022-12-27T11:26:11.751Z,3716.00
2022-12-27T11:26:22.308Z,3632.00
2022-12-27T11:26:33.288Z,3592.00
2022-12-27T11:26:48.771Z,3592.00
2022-12-27T11:26:56.149Z,3464.00
2022-12-27T11:27:06.049Z,3468.00
2022-12-27T11:27:16.841Z,3376.00
2022-12-27T11:27:27.381Z,3360.00
2022-12-27T11:27:38.062Z,3276.00
2022-12-27T11:27:48.856Z,3256.00
2022-12-27T11:27:59.928Z,3268.00
2022-12-27T11:28:10.968Z,3308.00
2022-12-27T11:28:21.754Z,3156.00
2022-12-27T11:28:32.849Z,3140.00
2022-12-27T11:28:43.827Z,3224.00
2022-12-27T11:28:54.601Z,3224.00
2022-12-27T11:29:05.681Z,3140.00
2022-12-27T11:29:16.663Z,3092.00
2022-12-27T11:29:27.450Z,3076.00
2022-12-27T11:29:37.985Z,3064.00
2022-12-27T11:29:49.013Z,3064.00
2022-12-27T11:29:59.803Z,2976.00
2022-12-27T11:30:10.353Z,3004.00
2022-12-27T11:30:21.364Z,3028.00
2022-12-27T11:30:32.162Z,2952.00
2022-12-27T11:30:43.223Z,2912.00
2022-12-27T11:30:54.227Z,2876.00
2022-12-27T11:31:05.039Z,2812.00
2022-12-27T11:31:16.132Z,2812.00
2022-12-27T11:31:27.130Z,2776.00
2022-12-27T11:31:37.930Z,2748.00
2022-12-27T11:31:49.021Z,2784.00
2022-12-27T11:32:00.212Z,2740.00
2022-12-27T11:32:10.951Z,2680.00
2022-12-27T11:32:22.038Z,2716.00
2022-12-27T11:32:33.036Z,2728.00
2022-12-27T11:32:43.845Z,2672.00
2022-12-27T11:32:54.916Z,2600.00
2022-12-27T11:33:05.887Z,2604.00
2022-12-27T11:33:22.569Z,2592.00
2022-12-27T11:33:28.754Z,2624.00
2022-12-27T11:33:38.654Z,2624.00
2022-12-27T11:33:49.460Z,2624.00
2022-12-27T11:34:00.006Z,2620.00
2022-12-27T11:34:10.984Z,2676.00
2022-12-27T11:34:21.757Z,2672.00
2022-12-27T11:34:32.320Z,2668.00
2022-12-27T11:34:43.289Z,2612.00
2022-12-27T11:34:54.232Z,2620.00
2022-12-27T11:35:04.826Z,2616.00
2022-12-27T11:35:15.769Z,2668.00
2022-12-27T11:35:26.561Z,2728.00
2022-12-27T11:35:37.093Z,2740.00
2022-12-27T11:35:48.098Z,2712.00
2022-12-27T11:35:58.854Z,2752.00
2022-12-27T11:36:09.934Z,2808.00
2022-12-27T11:36:20.956Z,2916.00
2022-12-27T11:36:31.727Z,2888.00
2022-12-27T11:36:42.814Z,2988.00
2022-12-27T11:36:53.806Z,2948.00
2022-12-27T11:37:04.599Z,2980.00
2022-12-27T11:37:15.115Z,3008.00
2022-12-27T11:37:26.105Z,3040.00
2022-12-27T11:37:36.879Z,3076.00
2022-12-27T11:37:47.972Z,3180.00
2022-12-27T11:37:58.947Z,3144.00
2022-12-27T11:38:09.725Z,3120.00
2022-12-27T11:38:20.803Z,3136.00
2022-12-27T11:38:31.805Z,3200.00
2022-12-27T11:38:42.574Z,3200.00
2022-12-27T11:38:53.649Z,3168.00
2022-12-27T11:39:04.675Z,3164.00
2022-12-27T11:39:15.437Z,3120.00
2022-12-27T11:39:25.977Z,3164.00
2022-12-27T11:39:36.966Z,3164.00
2022-12-27T11:39:47.752Z,3160.00
2022-12-27T11:39:58.290Z,3164.00
2022-12-27T11:40:09.264Z,3200.00
2022-12-27T11:40:20.077Z,3196.00
2022-12-27T11:40:30.641Z,3196.00
2022-12-27T11:40:41.571Z,3176.00
2022-12-27T11:40:52.353Z,3168.00
2022-12-27T11:41:03.467Z,3096.00
2022-12-27T11:41:14.434Z,3092.00
2022-12-27T11:41:28.087Z,3092.00
2022-12-27T11:41:36.025Z,3092.00
2022-12-27T11:41:46.988Z,3080.00
2022-12-27T11:41:57.793Z,3084.00
2022-12-27T11:42:08.863Z,3152.00
2022-12-27T11:42:19.877Z,3112.00
2022-12-27T11:42:30.630Z,3152.00
2022-12-27T11:42:41.717Z,3052.00
2022-12-27T11:42:52.713Z,3044.00
2022-12-27T11:43:03.489Z,3024.00
2022-12-27T11:43:14.031Z,3004.00
2022-12-27T11:43:25.008Z,3044.00
2022-12-27T11:43:35.798Z,3016.00
2022-12-27T11:43:46.882Z,2908.00
2022-12-27T11:43:57.864Z,2872.00
2022-12-27T11:44:08.651Z,2836.00
2022-12-27T11:44:19.214Z,2792.00
2022-12-27T11:44:30.191Z,2756.00
2022-12-27T11:44:41.009Z,2720.00
2022-12-27T11:44:51.542Z,2680.00
2022-12-27T11:45:02.507Z,2656.00
2022-12-27T11:45:13.319Z,2648.00
2022-12-27T11:45:23.852Z,2648.00
2022-12-27T11:45:34.835Z,2684.00
2022-12-27T11:45:45.605Z,2676.00
2022-12-27T11:45:56.153Z,2676.00
2022-12-27T11:46:07.131Z,2716.00
2022-12-27T11:46:18.031Z,2708.00
2022-12-27T11:46:28.601Z,2596.00
2022-12-27T11:46:39.608Z,2560.00
2022-12-27T11:46:54.019Z,2592.00
2022-12-27T11:47:02.495Z,2512.00
2022-12-27T11:47:12.496Z,2552.00
2022-12-27T11:47:23.323Z,2560.00
2022-12-27T11:47:33.917Z,2500.00
2022-12-27T11:47:44.854Z,2512.00
2022-12-27T11:47:55.636Z,2496.00
2022-12-27T11:48:06.716Z,2536.00
2022-12-27T11:48:17.698Z,2440.00
2022-12-27T11:48:28.505Z,2424.00
2022-12-27T11:48:39.601Z,2404.00
2022-12-27T11:48:50.554Z,2400.00
2022-12-27T11:49:01.345Z,2376.00
2022-12-27T11:49:11.883Z,2376.00
2022-12-27T11:49:22.870Z,2440.00
2022-12-27T11:49:33.667Z,2392.00
2022-12-27T11:49:44.740Z,2312.00
2022-12-27T11:49:55.762Z,2192.00
2022-12-27T11:50:06.521Z,2224.00
2022-12-27T11:50:17.081Z,2248.00
2022-12-27T11:50:28.080Z,2120.00
2022-12-27T11:50:38.875Z,2160.00
2022-12-27T11:50:49.932Z,2104.00
2022-12-27T11:51:00.928Z,2128.00
2022-12-27T11:51:11.715Z,2104.00
2022-12-27T11:51:22.280Z,2160.00
2022-12-27T11:51:33.258Z,2204.00
2022-12-27T11:51:44.088Z,2180.00
2022-12-27T11:51:54.614Z,2200.00
2022-12-27T11:52:05.587Z,2208.00
2022-12-27T11:52:16.383Z,2236.00
2022-12-27T11:52:27.446Z,2280.00
2022-12-27T11:52:38.435Z,2276.00
2022-12-27T11:52:49.214Z,2312.00
2022-12-27T11:52:59.762Z,2332.00
2022-12-27T11:53:10.746Z,2296.00
2022-12-27T11:53:21.550Z,2236.00
2022-12-27T11:53:32.616Z,2308.00
2022-12-27T11:53:43.584Z,2380.00
2022-12-27T11:53:56.508Z,2636.00
2022-12-27T11:54:04.984Z,2544.00
2022-12-27T11:54:15.962Z,2572.00
2022-12-27T11:54:26.760Z,2560.00
2022-12-27T11:54:37.323Z,2428.00
2022-12-27T11:54:48.282Z,2348.00
2022-12-27T11:54:59.095Z,2376.00
2022-12-27T11:55:09.636Z,2364.00
2022-12-27T11:55:20.632Z,2368.00
2022-12-27T11:55:31.399Z,2388.00
2022-12-27T11:55:41.970Z,2368.00
2022-12-27T11:55:52.944Z,2324.00
2022-12-27T11:56:03.755Z,2296.00
2022-12-27T11:56:14.851Z,2336.00
2022-12-27T11:56:25.820Z,2300.00
2022-12-27T11:56:36.633Z,2480.00
2022-12-27T11:56:47.169Z,2484.00
2022-12-27T11:56:58.190Z,2480.00
2022-12-27T11:57:08.946Z,2440.00
2022-12-27T11:57:20.056Z,2544.00
2022-12-27T11:57:31.019Z,2576.00
2022-12-27T11:57:41.813Z,2564.00
2022-12-27T11:57:52.375Z,2524.00
2022-12-27T11:58:03.371Z,2304.00
2022-12-27T11:58:14.150Z,2216.00
2022-12-27T11:58:24.680Z,2164.00
2022-12-27T11:58:35.683Z,2140.00
2022-12-27T11:58:46.466Z,2156.00
2022-12-27T11:58:57.538Z,2116.00
2022-12-27T11:59:08.513Z,2072.00
2022-12-27T11:59:19.336Z,2020.00
2022-12-27T11:59:29.884Z,1864.00
2022-12-27T11:59:40.875Z,1820.00
2022-12-27T11:59:51.653Z,1788.00
2022-12-27T12:00:02.733Z,1816.00
2022-12-27T12:00:13.715Z,1740.00
2022-12-27T12:00:24.514Z,1708.00
2022-12-27T12:00:35.601Z,1768.00
2022-12-27T12:00:46.622Z,1784.00
2022-12-27T12:01:02.066Z,1764.00
2022-12-27T12:01:09.479Z,1880.00
2022-12-27T12:01:19.419Z,1808.00
2022-12-27T12:01:30.240Z,1808.00
2022-12-27T12:01:40.881Z,1736.00
2022-12-27T12:01:51.470Z,1708.00
2022-12-27T12:02:02.495Z,1688.00
2022-12-27T12:02:13.134Z,1696.00
2022-12-27T12:02:24.134Z,1724.00
2022-12-27T12:02:34.976Z,1760.00
2022-12-27T12:02:45.562Z,1760.00
2022-12-27T12:02:56.190Z,1792.00
2022-12-27T12:03:07.046Z,1740.00
2022-12-27T12:03:17.660Z,1756.00
2022-12-27T12:03:28.648Z,1688.00
2022-12-27T12:03:39.465Z,1624.00
2022-12-27T12:03:49.999Z,1616.00
2022-12-27T12:04:00.992Z,1592.00
2022-12-27T12:04:11.781Z,1536.00
2022-12-27T12:04:22.314Z,1456.00
2022-12-27T12:04:33.318Z,1388.00
2022-12-27T12:04:44.165Z,1276.00
2022-12-27T12:04:54.784Z,1236.00
2022-12-27T12:05:05.428Z,1140.00
2022-12-27T12:05:16.189Z,1124.00
2022-12-27T12:05:27.299Z,1048.00
2022-12-27T12:05:38.264Z,1020.00
2022-12-27T12:05:49.053Z,1004.00
2022-12-27T12:06:00.130Z,984.00
2022-12-27T12:06:11.112Z,984.00
2022-12-27T12:06:21.905Z,964.00
2022-12-27T12:06:34.680Z,1096.00
2022-12-27T12:06:43.629Z,1060.00
2022-12-27T12:06:54.386Z,936.00
2022-12-27T12:07:04.934Z,908.00
2022-12-27T12:07:15.919Z,896.00
2022-12-27T12:07:26.715Z,884.00
2022-12-27T12:07:37.809Z,908.00
2022-12-27T12:07:48.789Z,924.00
2022-12-27T12:07:59.577Z,964.00
2022-12-27T12:08:10.656Z,1040.00
2022-12-27T12:08:21.648Z,1084.00
2022-12-27T12:08:32.450Z,1116.00
2022-12-27T12:08:43.529Z,1152.00
2022-12-27T12:08:54.536Z,1136.00
2022-12-27T12:09:05.329Z,1196.00
2022-12-27T12:09:15.848Z,1256.00
2022-12-27T12:09:26.845Z,1272.00
2022-12-27T12:09:37.639Z,1372.00
2022-12-27T12:09:48.187Z,1404.00
2022-12-27T12:09:59.188Z,1408.00
2022-12-27T12:10:09.961Z,1436.00
2022-12-27T12:10:21.094Z,1404.00
2022-12-27T12:10:32.043Z,1408.00
2022-12-27T12:10:42.837Z,1376.00
2022-12-27T12:10:53.417Z,1344.00
2022-12-27T12:11:04.380Z,1308.00
2022-12-27T12:11:15.160Z,1284.00
2022-12-27T12:11:25.723Z,1268.00
2022-12-27T12:11:36.730Z,1256.00
2022-12-27T12:11:54.452Z,1248.00
2022-12-27T12:11:59.081Z,1192.00
2022-12-27T12:12:09.021Z,1196.00
2022-12-27T12:12:19.805Z,1204.00
2022-12-27T12:12:30.362Z,1220.00
2022-12-27T12:12:41.359Z,1184.00
2022-12-27T12:12:52.135Z,1228.00
2022-12-27T12:13:03.216Z,1208.00
2022-12-27T12:13:14.242Z,1172.00
2022-12-27T12:13:25.003Z,1152.00
2022-12-27T12:13:36.107Z,1160.00
2022-12-27T12:13:47.108Z,1160.00
2022-12-27T12:13:57.881Z,1156.00
2022-12-27T12:14:08.957Z,1156.00
2022-12-27T12:14:19.944Z,1148.00
2022-12-27T12:14:30.730Z,1124.00
2022-12-27T12:14:41.822Z,1132.00
2022-12-27T12:14:52.838Z,1112.00
2022-12-27T12:15:03.600Z,1108.00
2022-12-27T12:15:14.673Z,1040.00
2022-12-27T12:15:25.735Z,1028.00
2022-12-27T12:15:36.503Z,1008.00
2022-12-27T12:15:47.573Z,948.00
2022-12-27T12:15:58.579Z,916.00
2022-12-27T12:16:09.375Z,872.00
2022-12-27T12:16:20.519Z,864.00
2022-12-27T12:16:31.521Z,864.00
2022-12-27T12:16:42.348Z,864.00
2022-12-27T12:16:52.888Z,832.00
2022-12-27T12:17:03.895Z,828.00
2022-12-27T12:17:14.656Z,820.00
2022-12-27T12:17:28.633Z,824.00
2022-12-27T12:17:37.760Z,824.00
2022-12-27T12:17:47.379Z,844.00
2022-12-27T12:17:58.457Z,836.00
2022-12-27T12:18:09.447Z,796.00
2022-12-27T12:18:20.233Z,828.00
2022-12-27T12:18:31.320Z,804.00
2022-12-27T12:18:42.321Z,804.00
2022-12-27T12:18:53.089Z,804.00
2022-12-27T12:19:04.183Z,820.00
2022-12-27T12:19:15.172Z,852.00
2022-12-27T12:19:25.937Z,868.00
2022-12-27T12:19:37.015Z,932.00
2022-12-27T12:19:48.004Z,900.00
2022-12-27T12:19:58.811Z,932.00
2022-12-27T12:20:09.874Z,932.00
2022-12-27T12:20:20.906Z,968.00
2022-12-27T12:20:31.727Z,956.00
2022-12-27T12:20:47.050Z,972.00
2022-12-27T12:20:54.265Z,940.00
2022-12-27T12:21:03.885Z,948.00
2022-12-27T12:21:14.434Z,956.00